Time;durP1;ratioP1;P1;durP2;ratioP2;P2;SDS_P1;SDS_P2;PMS_P1;PMS_P2;Temp;Humidity;BMP_temperature;BMP_pressure;BME280_temperature;BME280_humidity;BME280_pressure;Samples;Min_cycle;Max_cycle;Signal;HPM_P1;HPM_P2
2023/05/19 00:01:09;;;;;;;17.50;5.13;;;;;;;;;;5018821;28;20053;-67
2023/05/19 00:03:39;;;;;;;9.15;4.78;;;;;;;;;;5013040;28;20045;-67
2023/05/19 00:06:09;;;;;;;10.18;4.72;;;;;;;;;;5016133;28;20498;-67
2023/05/19 00:08:37;;;;;;;10.68;4.78;;;;;;;;;;5011095;28;20057;-66
2023/05/19 00:11:03;;;;;;;9.30;5.30;;;;;;;;;;5015834;28;20054;-67
2023/05/19 00:13:29;;;;;;;6.68;4.03;;;;;;;;;;5015599;28;20128;-65
2023/05/19 00:15:55;;;;;;;11.02;5.03;;;;;;;;;;5023164;28;20053;-66
2023/05/19 00:18:20;;;;;;;14.43;5.05;;;;;;;;;;5021291;28;20049;-66
2023/05/19 00:20:45;;;;;;;11.73;5.32;;;;;;;;;;5023725;28;20117;-65
2023/05/19 00:23:11;;;;;;;10.32;5.22;;;;;;;;;;5021877;28;20371;-65
2023/05/19 00:25:36;;;;;;;19.25;5.50;;;;;;;;;;5022424;28;20133;-66
2023/05/19 00:28:02;;;;;;;8.63;4.75;;;;;;;;;;5023591;28;20042;-67
2023/05/19 00:30:28;;;;;;;10.55;5.22;;;;;;;;;;5021065;28;20448;-66
2023/05/19 00:32:54;;;;;;;10.07;5.30;;;;;;;;;;5021915;28;20049;-67
2023/05/19 00:35:20;;;;;;;13.82;5.68;;;;;;;;;;5022024;28;20481;-66
2023/05/19 00:37:45;;;;;;;11.52;5.05;;;;;;;;;;5038325;28;20046;-67
2023/05/19 00:40:11;;;;;;;9.60;4.22;;;;;;;;;;5023232;28;20052;-66
2023/05/19 00:42:37;;;;;;;14.82;6.25;;;;;;;;;;5034120;28;20050;-67
2023/05/19 00:45:03;;;;;;;12.77;4.70;;;;;;;;;;5020345;28;20049;-67
2023/05/19 00:47:29;;;;;;;12.38;5.20;;;;;;;;;;5022803;28;20073;-67
2023/05/19 00:49:55;;;;;;;11.13;5.15;;;;;;;;;;5021618;28;20049;-67
2023/05/19 00:52:20;;;;;;;14.95;5.50;;;;;;;;;;5020481;28;20434;-65
2023/05/19 00:54:46;;;;;;;12.15;4.80;;;;;;;;;;5016659;28;20038;-65
2023/05/19 00:57:13;;;;;;;10.30;4.97;;;;;;;;;;5034175;28;20412;-66
2023/05/19 00:59:38;;;;;;;14.38;4.63;;;;;;;;;;5021334;28;20388;-65
2023/05/19 01:02:04;;;;;;;10.65;4.45;;;;;;;;;;5020689;28;20049;-66
2023/05/19 01:04:33;;;;;;;15.05;5.03;;;;;;;;;;5032729;28;21026;-67
2023/05/19 01:06:59;;;;;;;14.40;4.70;;;;;;;;;;5013835;28;20164;-66
2023/05/19 01:09:25;;;;;;;15.18;5.07;;;;;;;;;;5032623;28;20137;-67
2023/05/19 01:11:50;;;;;;;12.77;5.15;;;;;;;;;;5020364;28;20387;-66
2023/05/19 01:14:18;;;;;;;12.18;4.63;;;;;;;;;;5013137;28;20107;-67
2023/05/19 01:16:53;;;;;;;11.50;4.60;;;;;;;;;;5021924;28;20055;-66
2023/05/19 01:19:21;;;;;;;15.10;4.90;;;;;;;;;;5022168;28;20107;-67
2023/05/19 01:22:11;;;;;;;10.75;5.03;;;;;;;;;;5022616;28;20052;-66
2023/05/19 01:24:55;;;;;;;13.00;5.18;;;;;;;;;;5015799;28;20184;-65
2023/05/19 01:28:00;;;;;;;15.68;5.22;;;;;;;;;;5036107;28;20057;-66
2023/05/19 01:30:28;;;;;;;9.90;4.65;;;;;;;;;;5019663;28;20049;-66
2023/05/19 01:32:59;;;;;;;12.63;5.05;;;;;;;;;;5020544;28;20077;-67
2023/05/19 01:35:26;;;;;;;10.10;4.72;;;;;;;;;;5020659;28;20057;-66
2023/05/19 01:37:59;;;;;;;9.52;4.60;;;;;;;;;;5016580;28;20042;-66
2023/05/19 01:40:26;;;;;;;17.23;5.70;;;;;;;;;;5021092;28;20045;-67
2023/05/19 01:42:53;;;;;;;17.23;5.15;;;;;;;;;;5014544;28;20471;-66
2023/05/19 01:45:19;;;;;;;10.05;5.40;;;;;;;;;;5021413;28;20143;-66
2023/05/19 01:47:50;;;;;;;12.02;5.20;;;;;;;;;;5019365;28;20049;-66
2023/05/19 01:50:17;;;;;;;12.77;4.82;;;;;;;;;;5017953;28;20056;-66
2023/05/19 01:52:43;;;;;;;15.75;5.28;;;;;;;;;;5017882;28;20061;-67
2023/05/19 01:55:08;;;;;;;14.10;5.18;;;;;;;;;;5035640;28;20498;-67
2023/05/19 01:57:57;;;;;;;15.38;5.88;;;;;;;;;;5016707;28;20042;-69
2023/05/19 02:01:05;;;;;;;12.98;5.47;;;;;;;;;;5018861;28;20045;-68
2023/05/19 02:03:30;;;;;;;15.05;4.82;;;;;;;;;;5020109;28;20498;-68
2023/05/19 02:06:09;;;;;;;13.38;4.82;;;;;;;;;;5030406;28;20057;-67
2023/05/19 02:08:42;;;;;;;15.43;6.32;;;;;;;;;;5015753;28;20057;-67
2023/05/19 02:11:16;;;;;;;;;;;;;;;;;;5021934;28;20111;-68
2023/05/19 02:13:43;;;;;;;15.75;5.13;;;;;;;;;;5019704;28;19928;-68
2023/05/19 02:16:10;;;;;;;17.15;5.28;;;;;;;;;;5019586;28;20041;-68
2023/05/19 02:18:35;;;;;;;8.65;4.18;;;;;;;;;;5017074;28;20044;-67
2023/05/19 02:21:01;;;;;;;10.80;4.93;;;;;;;;;;5035717;28;20672;-67
2023/05/19 02:23:27;;;;;;;9.88;4.55;;;;;;;;;;5036069;28;20053;-67
2023/05/19 02:25:52;;;;;;;14.07;4.95;;;;;;;;;;5020962;28;20033;-68
2023/05/19 02:28:18;;;;;;;18.77;5.45;;;;;;;;;;5020114;28;20451;-67
2023/05/19 02:30:43;;;;;;;15.98;5.10;;;;;;;;;;5034572;28;20069;-68
2023/05/19 02:33:10;;;;;;;12.00;5.13;;;;;;;;;;4995291;28;20049;-68
2023/05/19 02:35:36;;;;;;;10.05;5.05;;;;;;;;;;5020564;28;20038;-67
2023/05/19 02:38:01;;;;;;;13.30;5.28;;;;;;;;;;5036217;28;20045;-67
2023/05/19 02:40:27;;;;;;;11.10;5.50;;;;;;;;;;5035543;28;20516;-67
2023/05/19 02:42:53;;;;;;;10.80;4.22;;;;;;;;;;5013136;28;20069;-67
2023/05/19 02:45:19;;;;;;;14.02;5.05;;;;;;;;;;5035003;28;20231;-66
2023/05/19 02:47:44;;;;;;;13.38;5.63;;;;;;;;;;5036010;28;20132;-66
2023/05/19 02:50:10;;;;;;;17.05;5.30;;;;;;;;;;5036208;28;20046;-66
2023/05/19 02:52:35;;;;;;;10.57;6.03;;;;;;;;;;5033480;28;20049;-67
2023/05/19 02:55:01;;;;;;;14.20;6.97;;;;;;;;;;5019276;28;20045;-66
2023/05/19 02:57:30;;;;;;;12.45;5.18;;;;;;;;;;5020167;28;20061;-67
2023/05/19 02:59:55;;;;;;;14.38;5.78;;;;;;;;;;5036027;28;20045;-67
2023/05/19 03:02:21;;;;;;;15.20;4.65;;;;;;;;;;5009619;28;20045;-67
2023/05/19 03:04:47;;;;;;;16.83;5.25;;;;;;;;;;5018157;28;20053;-66
2023/05/19 03:07:12;;;;;;;18.40;5.10;;;;;;;;;;5020368;28;20046;-66
2023/05/19 03:09:38;;;;;;;16.80;6.15;;;;;;;;;;5020186;28;20080;-66
2023/05/19 03:12:06;;;;;;;12.63;5.50;;;;;;;;;;5020299;28;20091;-66
2023/05/19 03:14:33;;;;;;;13.82;6.30;;;;;;;;;;5032592;28;20092;-66
2023/05/19 03:16:59;;;;;;;18.55;5.78;;;;;;;;;;5035159;28;20136;-67
2023/05/19 03:19:24;;;;;;;15.13;5.78;;;;;;;;;;5019041;28;20092;-67
2023/05/19 03:21:50;;;;;;;26.42;5.13;;;;;;;;;;5018454;28;20069;-68
2023/05/19 03:24:16;;;;;;;14.05;5.20;;;;;;;;;;5019922;28;20041;-68
2023/05/19 03:26:42;;;;;;;16.45;5.68;;;;;;;;;;5033642;28;20061;-68
2023/05/19 03:29:07;;;;;;;11.60;5.82;;;;;;;;;;5019192;28;20065;-68
2023/05/19 03:31:35;;;;;;;10.73;5.10;;;;;;;;;;5019762;28;20037;-68
2023/05/19 03:34:00;;;;;;;11.65;5.18;;;;;;;;;;5018319;28;20103;-68
2023/05/19 03:36:30;;;;;;;10.82;5.40;;;;;;;;;;5032886;28;20159;-68
2023/05/19 03:38:57;;;;;;;21.23;5.88;;;;;;;;;;5035702;28;20049;-68
2023/05/19 03:41:23;;;;;;;16.38;7.22;;;;;;;;;;5034785;28;20061;-68
2023/05/19 03:43:48;;;;;;;31.15;11.60;;;;;;;;;;5018508;28;20041;-68
2023/05/19 03:46:14;;;;;;;30.67;10.27;;;;;;;;;;5034815;28;20084;-67
2023/05/19 03:48:40;;;;;;;10.77;5.90;;;;;;;;;;5021169;28;20187;-68
2023/05/19 03:51:33;;;;;;;10.77;5.47;;;;;;;;;;5024287;28;20484;-67
2023/05/19 03:54:05;;;;;;;18.40;6.57;;;;;;;;;;5020529;28;20052;-67
2023/05/19 03:56:31;;;;;;;12.20;5.30;;;;;;;;;;5021470;28;20037;-67
2023/05/19 03:58:58;;;;;;;15.80;5.80;;;;;;;;;;5022271;28;20096;-68
2023/05/19 04:01:23;;;;;;;13.77;5.75;;;;;;;;;;5036296;28;20100;-68
2023/05/19 04:03:49;;;;;;;16.83;5.07;;;;;;;;;;5036229;28;20493;-68
2023/05/19 04:06:15;;;;;;;14.35;6.38;;;;;;;;;;5014668;28;20100;-68
2023/05/19 04:08:40;;;;;;;11.82;5.65;;;;;;;;;;5014538;28;20053;-69
2023/05/19 04:11:05;;;;;;;11.13;4.93;;;;;;;;;;5016647;28;20049;-69
2023/05/19 04:13:34;;;;;;;14.65;5.53;;;;;;;;;;5015309;28;20615;-68
2023/05/19 04:16:00;;;;;;;15.32;5.72;;;;;;;;;;5015850;28;20038;-68
2023/05/19 04:18:25;;;;;;;13.13;5.22;;;;;;;;;;5018779;28;20075;-68
2023/05/19 04:20:51;;;;;;;11.95;5.28;;;;;;;;;;5019570;28;20046;-68
2023/05/19 04:23:18;;;;;;;12.73;5.85;;;;;;;;;;5021232;28;20041;-69
2023/05/19 04:25:43;;;;;;;20.02;6.07;;;;;;;;;;5017821;28;20104;-69
2023/05/19 04:28:08;;;;;;;14.68;5.85;;;;;;;;;;5013803;28;20038;-69
2023/05/19 04:30:35;;;;;;;14.45;6.20;;;;;;;;;;5017522;28;20056;-69
2023/05/19 04:33:02;;;;;;;13.65;5.88;;;;;;;;;;5018999;28;20124;-69
2023/05/19 04:35:27;;;;;;;12.02;6.38;;;;;;;;;;5017573;28;20034;-69
2023/05/19 04:37:53;;;;;;;13.52;6.05;;;;;;;;;;5018738;28;20836;-69
2023/05/19 04:40:23;;;;;;;15.63;5.72;;;;;;;;;;5019078;28;20380;-69
2023/05/19 04:42:51;;;;;;;11.18;5.43;;;;;;;;;;5022658;28;20051;-68
2023/05/19 04:45:17;;;;;;;20.88;5.60;;;;;;;;;;5015846;28;20041;-69
2023/05/19 04:47:47;;;;;;;12.80;5.80;;;;;;;;;;5020860;28;20095;-68
2023/05/19 04:50:13;;;;;;;15.85;5.75;;;;;;;;;;5019910;28;20391;-68
2023/05/19 04:52:41;;;;;;;13.30;5.57;;;;;;;;;;5014794;28;20034;-68
2023/05/19 04:55:07;;;;;;;11.80;5.82;;;;;;;;;;5018036;28;20050;-68
2023/05/19 04:57:33;;;;;;;8.60;5.05;;;;;;;;;;5018414;28;20676;-68
2023/05/19 04:59:59;;;;;;;10.52;5.45;;;;;;;;;;5021911;28;20049;-68
2023/05/19 05:02:27;;;;;;;9.40;5.22;;;;;;;;;;5032252;28;20272;-69
2023/05/19 05:04:53;;;;;;;13.82;5.15;;;;;;;;;;5018281;28;20042;-68
2023/05/19 05:07:20;;;;;;;10.05;5.32;;;;;;;;;;5016680;28;20411;-68
2023/05/19 05:09:47;;;;;;;13.05;5.32;;;;;;;;;;5033699;28;20057;-67
2023/05/19 05:12:14;;;;;;;12.57;4.70;;;;;;;;;;5000308;28;20052;-68
2023/05/19 05:14:40;;;;;;;12.45;4.88;;;;;;;;;;5022058;28;20052;-68
2023/05/19 05:17:08;;;;;;;12.45;4.82;;;;;;;;;;5015693;28;20045;-68
2023/05/19 05:19:34;;;;;;;10.23;5.00;;;;;;;;;;5038583;28;20045;-68
2023/05/19 05:22:00;;;;;;;13.25;5.32;;;;;;;;;;5022683;28;20084;-68
2023/05/19 05:24:26;;;;;;;12.05;5.20;;;;;;;;;;5022002;28;20065;-69
2023/05/19 05:26:57;;;;;;;12.93;5.20;;;;;;;;;;5032096;28;20038;-71
2023/05/19 05:29:23;;;;;;;13.20;5.07;;;;;;;;;;5029940;28;20095;-68
2023/05/19 05:31:50;;;;;;;7.68;4.22;;;;;;;;;;5038535;28;20042;-68
2023/05/19 05:34:15;;;;;;;14.52;4.60;;;;;;;;;;5020063;28;20111;-68
2023/05/19 05:36:41;;;;;;;7.43;3.92;;;;;;;;;;5022411;28;20056;-68
2023/05/19 05:39:07;;;;;;;9.80;4.55;;;;;;;;;;5023876;28;20049;-68
2023/05/19 05:41:35;;;;;;;5.65;4.30;;;;;;;;;;5023057;28;20143;-68
2023/05/19 05:44:07;;;;;;;15.48;5.00;;;;;;;;;;5022806;28;20213;-68
2023/05/19 05:46:32;;;;;;;10.13;5.07;;;;;;;;;;5038772;28;20451;-68
2023/05/19 05:48:58;;;;;;;7.75;4.68;;;;;;;;;;5017021;28;20064;-68
2023/05/19 05:51:24;;;;;;;18.60;5.78;;;;;;;;;;5040622;28;20091;-68
2023/05/19 05:53:54;;;;;;;9.13;4.88;;;;;;;;;;5038178;28;20050;-68
2023/05/19 05:56:23;;;;;;;11.57;4.82;;;;;;;;;;5023680;28;20044;-68
2023/05/19 05:58:52;;;;;;;12.40;4.97;;;;;;;;;;5020123;28;20045;-68
2023/05/19 06:01:19;;;;;;;10.43;5.55;;;;;;;;;;5022169;28;20108;-69
2023/05/19 06:03:45;;;;;;;10.55;5.18;;;;;;;;;;5020067;28;20425;-68
2023/05/19 06:06:14;;;;;;;12.00;4.78;;;;;;;;;;5018116;28;20057;-68
2023/05/19 06:08:39;;;;;;;12.63;5.07;;;;;;;;;;5020289;28;20045;-68
2023/05/19 06:11:08;;;;;;;9.80;4.57;;;;;;;;;;5021926;28;20045;-68
2023/05/19 06:13:35;;;;;;;10.25;5.15;;;;;;;;;;5034321;28;20042;-68
2023/05/19 06:16:03;;;;;;;8.85;4.80;;;;;;;;;;5023312;28;20382;-68
2023/05/19 06:18:33;;;;;;;13.38;4.68;;;;;;;;;;5018040;28;20050;-71
2023/05/19 06:21:00;;;;;;;8.73;4.20;;;;;;;;;;5014199;28;20041;-71
2023/05/19 06:23:27;;;;;;;11.95;4.70;;;;;;;;;;5038376;28;20128;-69
2023/05/19 06:25:53;;;;;;;9.85;5.00;;;;;;;;;;5016204;28;20042;-68
2023/05/19 06:28:19;;;;;;;7.18;4.30;;;;;;;;;;5020270;28;20044;-68
2023/05/19 06:30:45;;;;;;;15.10;6.38;;;;;;;;;;5016451;28;20041;-68
2023/05/19 06:33:18;;;;;;;16.33;4.82;;;;;;;;;;5035590;28;20518;-68
2023/05/19 06:35:44;;;;;;;7.60;4.50;;;;;;;;;;5032661;28;20123;-68
2023/05/19 06:38:09;;;;;;;15.32;5.20;;;;;;;;;;5020365;28;20041;-68
2023/05/19 06:40:35;;;;;;;8.40;4.75;;;;;;;;;;5022255;28;20041;-68
2023/05/19 06:43:01;;;;;;;13.48;4.95;;;;;;;;;;5035086;28;20102;-68
2023/05/19 06:45:38;;;;;;;14.93;5.70;;;;;;;;;;4999656;28;20880;-71
2023/05/19 06:48:04;;;;;;;13.45;5.07;;;;;;;;;;5038062;28;20487;-70
2023/05/19 06:50:30;;;;;;;10.93;4.20;;;;;;;;;;5022161;28;20049;-68
2023/05/19 06:52:57;;;;;;;7.70;4.40;;;;;;;;;;5021758;28;20049;-71
2023/05/19 06:55:22;;;;;;;10.30;5.82;;;;;;;;;;5018583;28;20038;-68
2023/05/19 06:57:48;;;;;;;14.82;5.32;;;;;;;;;;5013084;28;20046;-69
2023/05/19 07:00:15;;;;;;;11.98;4.80;;;;;;;;;;5034529;28;20052;-68
2023/05/19 07:02:44;;;;;;;9.77;4.75;;;;;;;;;;5016796;28;20722;-68
2023/05/19 07:05:09;;;;;;;12.45;5.10;;;;;;;;;;5016933;28;20135;-68
2023/05/19 07:07:35;;;;;;;11.60;5.40;;;;;;;;;;5017974;28;20045;-70
2023/05/19 07:10:02;;;;;;;8.90;5.22;;;;;;;;;;5017368;28;20045;-70
2023/05/19 07:12:29;;;;;;;11.40;5.68;;;;;;;;;;5032543;28;20112;-68
2023/05/19 07:14:55;;;;;;;12.60;5.43;;;;;;;;;;5017227;28;20049;-68
2023/05/19 07:17:22;;;;;;;10.65;5.40;;;;;;;;;;5032839;28;20140;-68
2023/05/19 07:19:47;;;;;;;9.60;5.90;;;;;;;;;;5013279;28;20136;-71
2023/05/19 07:22:13;;;;;;;11.57;5.65;;;;;;;;;;5036929;28;20054;-68
2023/05/19 07:24:39;;;;;;;12.60;5.70;;;;;;;;;;5035342;28;20557;-69
2023/05/19 07:27:05;;;;;;;6.47;5.05;;;;;;;;;;5036074;28;20057;-68
2023/05/19 07:29:30;;;;;;;9.27;4.65;;;;;;;;;;5007494;28;20049;-70
2023/05/19 07:31:56;;;;;;;7.28;4.50;;;;;;;;;;5017010;28;20041;-68
2023/05/19 07:34:25;;;;;;;6.72;4.65;;;;;;;;;;5013021;28;20060;-69
2023/05/19 07:36:50;;;;;;;11.43;4.68;;;;;;;;;;5017552;28;20064;-68
2023/05/19 07:39:16;;;;;;;8.82;4.60;;;;;;;;;;5020982;28;20499;-70
2023/05/19 07:41:42;;;;;;;13.40;4.57;;;;;;;;;;5020850;28;20091;-69
2023/05/19 07:44:09;;;;;;;15.55;4.72;;;;;;;;;;5014767;28;20497;-68
2023/05/19 07:46:36;;;;;;;5.78;3.88;;;;;;;;;;5013473;28;20037;-69
2023/05/19 07:49:02;;;;;;;9.15;4.10;;;;;;;;;;5015567;28;20049;-68
2023/05/19 07:51:28;;;;;;;12.27;3.85;;;;;;;;;;5013732;28;20046;-69
2023/05/19 07:53:53;;;;;;;5.22;3.63;;;;;;;;;;5016739;28;20521;-68
2023/05/19 07:56:18;;;;;;;13.20;4.20;;;;;;;;;;5013450;28;20045;-68
2023/05/19 07:58:44;;;;;;;8.35;4.35;;;;;;;;;;5010014;28;20062;-68
2023/05/19 08:01:09;;;;;;;8.90;4.50;;;;;;;;;;5014100;28;20060;-68
2023/05/19 08:03:35;;;;;;;12.32;4.88;;;;;;;;;;5011897;28;20046;-69
2023/05/19 08:06:01;;;;;;;10.52;5.75;;;;;;;;;;5014138;28;20050;-71
2023/05/19 08:08:26;;;;;;;7.45;4.38;;;;;;;;;;5010010;28;20106;-71
2023/05/19 08:10:52;;;;;;;9.32;4.72;;;;;;;;;;5008633;28;20038;-70
2023/05/19 08:13:17;;;;;;;7.70;4.00;;;;;;;;;;5010141;28;21097;-69
2023/05/19 08:15:43;;;;;;;9.75;4.85;;;;;;;;;;5011500;28;20171;-69
2023/05/19 08:18:10;;;;;;;4.97;3.83;;;;;;;;;;5011363;28;20613;-69
2023/05/19 08:20:35;;;;;;;11.18;3.92;;;;;;;;;;5012977;28;20052;-69
2023/05/19 08:23:00;;;;;;;5.07;3.30;;;;;;;;;;5011442;28;20617;-70
2023/05/19 08:25:26;;;;;;;8.30;4.10;;;;;;;;;;5012840;28;20160;-70
2023/05/19 08:27:51;;;;;;;8.52;4.20;;;;;;;;;;5014856;28;20045;-70
2023/05/19 08:30:17;;;;;;;5.63;3.63;;;;;;;;;;5012965;28;20046;-69
2023/05/19 08:32:42;;;;;;;4.85;3.70;;;;;;;;;;5011609;28;20053;-69
2023/05/19 08:35:08;;;;;;;4.05;3.08;;;;;;;;;;5014605;28;20053;-69
2023/05/19 08:37:35;;;;;;;6.05;3.55;;;;;;;;;;5013972;28;20099;-69
2023/05/19 08:40:03;;;;;;;9.50;4.80;;;;;;;;;;5020104;28;20506;-69
2023/05/19 08:42:29;;;;;;;9.40;4.53;;;;;;;;;;5014056;28;20050;-69
2023/05/19 08:44:55;;;;;;;7.00;4.07;;;;;;;;;;5021508;28;20087;-69
2023/05/19 08:47:21;;;;;;;9.57;3.80;;;;;;;;;;5021009;28;20088;-70
2023/05/19 08:49:51;;;;;;;6.03;4.30;;;;;;;;;;5020591;28;20110;-70
2023/05/19 08:52:22;;;;;;;5.18;3.65;;;;;;;;;;5014163;28;20149;-69
2023/05/19 08:54:54;;;;;;;13.40;4.77;;;;;;;;;;5031911;28;20049;-68
2023/05/19 08:57:21;;;;;;;;;;;;;;;;;;5014249;28;20298;-68
2023/05/19 08:59:49;;;;;;;9.18;4.10;;;;;;;;;;5014309;28;19920;-69
2023/05/19 09:02:15;;;;;;;12.13;4.30;;;;;;;;;;5015798;28;20052;-68
2023/05/19 09:04:44;;;;;;;8.88;3.67;;;;;;;;;;5017793;28;20383;-70
2023/05/19 09:07:12;;;;;;;8.77;4.72;;;;;;;;;;5016331;28;20168;-70
2023/05/19 09:09:41;;;;;;;9.32;4.55;;;;;;;;;;5017671;28;20077;-70
2023/05/19 09:12:07;;;;;;;7.07;4.38;;;;;;;;;;5020182;28;20041;-69
2023/05/19 09:14:33;;;;;;;8.60;4.53;;;;;;;;;;5015548;28;20053;-70
2023/05/19 09:17:00;;;;;;;11.43;4.35;;;;;;;;;;5015999;28;20115;-69
2023/05/19 09:19:27;;;;;;;7.85;4.50;;;;;;;;;;5015363;28;20473;-70
2023/05/19 09:22:00;;;;;;;7.75;4.35;;;;;;;;;;5019026;28;20041;-69
2023/05/19 09:24:26;;;;;;;7.25;4.70;;;;;;;;;;5014993;28;20049;-70
2023/05/19 09:26:55;;;;;;;7.13;4.95;;;;;;;;;;5022299;28;20846;-70
2023/05/19 09:29:21;;;;;;;6.70;4.55;;;;;;;;;;5019447;28;20112;-70
2023/05/19 09:31:54;;;;;;;6.70;4.78;;;;;;;;;;5019801;28;20068;-69
2023/05/19 09:34:21;;;;;;;9.38;5.20;;;;;;;;;;5021834;28;20191;-70
2023/05/19 09:36:51;;;;;;;10.80;4.82;;;;;;;;;;5015242;28;20041;-69
2023/05/19 09:39:22;;;;;;;9.70;5.40;;;;;;;;;;5015242;28;20044;-69
2023/05/19 09:41:52;;;;;;;8.35;4.72;;;;;;;;;;5015195;28;20106;-70
2023/05/19 09:44:29;;;;;;;13.45;5.43;;;;;;;;;;5015410;28;20061;-70
2023/05/19 09:46:55;;;;;;;10.82;5.43;;;;;;;;;;5047841;28;20050;-70
2023/05/19 09:49:22;;;;;;;10.55;6.43;;;;;;;;;;5020165;28;20053;-70
2023/05/19 09:51:53;;;;;;;9.73;5.55;;;;;;;;;;5017205;28;20052;-70
2023/05/19 09:54:20;;;;;;;8.27;5.88;;;;;;;;;;5021229;28;20045;-70
2023/05/19 09:56:57;;;;;;;9.50;5.63;;;;;;;;;;5021222;28;20053;-70
2023/05/19 09:59:23;;;;;;;10.68;5.88;;;;;;;;;;5018515;28;20426;-70
2023/05/19 10:01:52;;;;;;;11.10;6.40;;;;;;;;;;5015509;28;20053;-70
2023/05/19 10:04:18;;;;;;;8.98;6.10;;;;;;;;;;5011717;28;20041;-70
2023/05/19 10:06:44;;;;;;;9.63;6.60;;;;;;;;;;5018784;28;20092;-69
2023/05/19 10:09:11;;;;;;;11.05;5.78;;;;;;;;;;5014992;28;20077;-70
2023/05/19 10:11:36;;;;;;;14.32;7.28;;;;;;;;;;5017075;28;20119;-70
2023/05/19 10:14:03;;;;;;;12.65;6.63;;;;;;;;;;5017918;28;20886;-69
2023/05/19 10:16:29;;;;;;;12.27;6.20;;;;;;;;;;5015955;28;20041;-71
2023/05/19 10:18:57;;;;;;;10.02;5.88;;;;;;;;;;5019027;28;20509;-70
2023/05/19 10:21:22;;;;;;;11.82;5.30;;;;;;;;;;5013936;28;20068;-69
2023/05/19 10:23:48;;;;;;;9.25;5.78;;;;;;;;;;5016881;28;20135;-70
2023/05/19 10:26:14;;;;;;;9.38;5.40;;;;;;;;;;5014725;28;20136;-70
2023/05/19 10:28:42;;;;;;;10.98;4.85;;;;;;;;;;5019129;28;20045;-70
2023/05/19 10:31:15;;;;;;;7.70;4.60;;;;;;;;;;5031289;28;20056;-70
2023/05/19 10:34:06;;;;;;;9.30;5.38;;;;;;;;;;5018777;28;20072;-69
2023/05/19 10:36:48;;;;;;;6.60;4.53;;;;;;;;;;5017779;28;20041;-70
2023/05/19 10:39:23;;;;;;;7.78;4.80;;;;;;;;;;5007482;28;20049;-70
2023/05/19 10:42:33;;;;;;;6.93;4.80;;;;;;;;;;5018416;28;20059;-71
2023/05/19 10:45:18;;;;;;;8.32;4.25;;;;;;;;;;4995862;28;20053;-69
2023/05/19 10:47:44;;;;;;;10.60;5.82;;;;;;;;;;4997488;28;20050;-69
2023/05/19 10:50:10;;;;;;;10.88;5.00;;;;;;;;;;5010161;28;20079;-69
2023/05/19 10:52:38;;;;;;;9.82;5.07;;;;;;;;;;5017537;28;20442;-70
2023/05/19 10:55:07;;;;;;;11.40;6.53;;;;;;;;;;5008628;28;20045;-70
2023/05/19 10:57:33;;;;;;;10.10;6.00;;;;;;;;;;5013792;28;20057;-69
2023/05/19 11:00:10;;;;;;;10.90;6.50;;;;;;;;;;5012448;28;20096;-70
2023/05/19 11:02:40;;;;;;;11.18;6.05;;;;;;;;;;5016015;28;20084;-70
2023/05/19 11:05:13;;;;;;;8.70;6.68;;;;;;;;;;5006857;28;21005;-70
2023/05/19 11:08:06;;;;;;;11.80;7.15;;;;;;;;;;5004959;28;20135;-70
2023/05/19 11:10:32;;;;;;;14.48;6.88;;;;;;;;;;5005989;28;20403;-71
2023/05/19 11:12:58;;;;;;;11.32;7.45;;;;;;;;;;5030807;28;20044;-70
2023/05/19 11:15:29;;;;;;;11.60;7.13;;;;;;;;;;5018366;28;20057;-71
2023/05/19 11:17:54;;;;;;;11.10;7.35;;;;;;;;;;5016715;28;20069;-69
2023/05/19 11:20:27;;;;;;;12.05;7.88;;;;;;;;;;5007520;28;20088;-69
2023/05/19 11:23:17;;;;;;;11.80;8.10;;;;;;;;;;5011136;28;20053;-68
2023/05/19 11:25:44;;;;;;;12.00;7.55;;;;;;;;;;5017012;28;20056;-69
2023/05/19 11:28:13;;;;;;;12.88;7.90;;;;;;;;;;5019228;28;20053;-68
2023/05/19 11:30:41;;;;;;;14.00;6.75;;;;;;;;;;5012620;28;20057;-69
2023/05/19 11:33:07;;;;;;;8.63;6.97;;;;;;;;;;5007813;28;20045;-69
2023/05/19 11:35:33;;;;;;;11.95;7.22;;;;;;;;;;5009827;28;20060;-69
2023/05/19 11:38:00;;;;;;;12.25;6.72;;;;;;;;;;5012764;28;20056;-70
2023/05/19 11:40:25;;;;;;;8.63;6.85;;;;;;;;;;5002227;28;20038;-69
2023/05/19 11:42:51;;;;;;;9.07;7.30;;;;;;;;;;5005694;28;20064;-69
2023/05/19 11:45:25;;;;;;;11.27;8.05;;;;;;;;;;5008628;28;20049;-69
2023/05/19 11:47:51;;;;;;;10.48;7.38;;;;;;;;;;5013650;28;20100;-70
2023/05/19 11:50:17;;;;;;;8.90;6.88;;;;;;;;;;5016846;28;20768;-69
2023/05/19 11:52:46;;;;;;;11.10;8.35;;;;;;;;;;5015103;28;20056;-69
2023/05/19 11:55:21;;;;;;;12.05;7.70;;;;;;;;;;5011266;28;20129;-69
2023/05/19 11:58:05;;;;;;;13.27;7.50;;;;;;;;;;5031396;28;20056;-69
2023/05/19 12:00:38;;;;;;;10.15;7.70;;;;;;;;;;5017463;28;20203;-70
2023/05/19 12:03:03;;;;;;;14.32;7.32;;;;;;;;;;5005374;28;20037;-69
2023/05/19 12:05:30;;;;;;;11.00;6.95;;;;;;;;;;5014944;28;20044;-69
2023/05/19 12:07:56;;;;;;;13.85;8.23;;;;;;;;;;5008021;28;20057;-69
2023/05/19 12:10:29;;;;;;;11.40;8.65;;;;;;;;;;5013082;28;20099;-69
2023/05/19 12:12:56;;;;;;;13.85;8.20;;;;;;;;;;5020421;28;20049;-70
2023/05/19 12:15:22;;;;;;;10.73;8.50;;;;;;;;;;5021249;28;20603;-69
2023/05/19 12:17:56;;;;;;;14.75;8.40;;;;;;;;;;5021570;28;20043;-69
2023/05/19 12:20:22;;;;;;;12.55;7.75;;;;;;;;;;5022391;28;20049;-70
2023/05/19 12:22:49;;;;;;;13.80;7.90;;;;;;;;;;5020750;28;20072;-69
2023/05/19 12:25:15;;;;;;;17.02;7.35;;;;;;;;;;5020337;28;20490;-69
2023/05/19 12:27:42;;;;;;;13.23;7.47;;;;;;;;;;5014801;28;20058;-69
2023/05/19 12:30:08;;;;;;;10.05;6.70;;;;;;;;;;5013126;28;20045;-69
2023/05/19 12:32:35;;;;;;;8.30;7.38;;;;;;;;;;5017048;28;20147;-69
2023/05/19 12:35:03;;;;;;;11.32;7.63;;;;;;;;;;5012435;28;20502;-69
2023/05/19 12:37:28;;;;;;;11.32;5.93;;;;;;;;;;5014177;28;20046;-69
2023/05/19 12:39:57;;;;;;;11.27;7.55;;;;;;;;;;5013816;28;20382;-69
2023/05/19 12:42:29;;;;;;;9.48;7.30;;;;;;;;;;5013475;28;20228;-69
2023/05/19 12:44:56;;;;;;;11.57;7.38;;;;;;;;;;5010079;28;20106;-70
2023/05/19 12:47:21;;;;;;;12.13;7.65;;;;;;;;;;5017238;28;20124;-69
2023/05/19 12:49:53;;;;;;;11.13;7.32;;;;;;;;;;5007748;28;20124;-69
2023/05/19 12:52:22;;;;;;;10.23;6.80;;;;;;;;;;5009131;28;20048;-69
2023/05/19 12:55:17;;;;;;;14.15;7.32;;;;;;;;;;5012922;28;20127;-69
2023/05/19 12:57:47;;;;;;;10.23;6.78;;;;;;;;;;5005927;28;20045;-69
2023/05/19 13:00:19;;;;;;;11.70;7.68;;;;;;;;;;5021769;28;20049;-69
2023/05/19 13:03:03;;;;;;;9.60;7.03;;;;;;;;;;5013484;28;20049;-69
2023/05/19 13:05:37;;;;;;;8.95;7.38;;;;;;;;;;5011512;28;20046;-69
2023/05/19 13:08:11;;;;;;;11.05;7.63;;;;;;;;;;5008756;28;20041;-69
2023/05/19 13:10:37;;;;;;;10.32;6.70;;;;;;;;;;5005941;28;20057;-69
2023/05/19 13:13:03;;;;;;;9.07;6.43;;;;;;;;;;5017378;28;20622;-69
2023/05/19 13:15:33;;;;;;;9.38;6.10;;;;;;;;;;5016471;28;20045;-69
2023/05/19 13:17:59;;;;;;;11.15;6.90;;;;;;;;;;5012809;28;20065;-70
2023/05/19 13:20:27;;;;;;;12.20;7.03;;;;;;;;;;5010714;28;20049;-69
2023/05/19 13:22:53;;;;;;;10.82;7.60;;;;;;;;;;5014162;28;20510;-69
2023/05/19 13:25:18;;;;;;;9.70;7.00;;;;;;;;;;5016813;28;20144;-69
2023/05/19 13:27:44;;;;;;;10.18;6.88;;;;;;;;;;5013418;28;20061;-69
2023/05/19 13:30:11;;;;;;;9.18;6.38;;;;;;;;;;5018197;28;20445;-69
2023/05/19 13:32:37;;;;;;;9.10;7.03;;;;;;;;;;5011315;28;20072;-69
2023/05/19 13:35:03;;;;;;;9.60;6.95;;;;;;;;;;5011198;28;20148;-69
2023/05/19 13:37:28;;;;;;;7.20;6.50;;;;;;;;;;5015639;28;20471;-69
2023/05/19 13:39:54;;;;;;;8.70;6.40;;;;;;;;;;5009287;28;20498;-70
2023/05/19 13:42:19;;;;;;;12.43;7.25;;;;;;;;;;5009449;28;20037;-70
2023/05/19 13:44:45;;;;;;;8.77;6.57;;;;;;;;;;5032614;28;20118;-69
2023/05/19 13:47:11;;;;;;;8.93;6.80;;;;;;;;;;5014288;28;20208;-69
2023/05/19 13:49:36;;;;;;;11.00;7.45;;;;;;;;;;5013262;28;20089;-69
2023/05/19 13:52:03;;;;;;;8.63;6.35;;;;;;;;;;5014254;28;20041;-69
2023/05/19 13:54:29;;;;;;;8.73;6.43;;;;;;;;;;5034551;28;20045;-70
2023/05/19 13:56:54;;;;;;;10.45;6.88;;;;;;;;;;5021307;28;20434;-69
2023/05/19 13:59:20;;;;;;;11.65;7.85;;;;;;;;;;5019428;28;20990;-70
2023/05/19 14:01:46;;;;;;;11.30;7.63;;;;;;;;;;5018792;28;20081;-69
2023/05/19 14:04:12;;;;;;;8.65;7.22;;;;;;;;;;5019948;28;20087;-69
2023/05/19 14:06:38;;;;;;;13.30;7.28;;;;;;;;;;5016985;28;20553;-70
2023/05/19 14:09:05;;;;;;;11.88;7.97;;;;;;;;;;5019700;28;20045;-69
2023/05/19 14:11:30;;;;;;;12.57;6.78;;;;;;;;;;5016266;28;20049;-69
2023/05/19 14:13:56;;;;;;;10.80;6.65;;;;;;;;;;5012711;28;20052;-68
2023/05/19 14:16:21;;;;;;;11.00;6.80;;;;;;;;;;5013154;28;20514;-69
2023/05/19 14:18:47;;;;;;;10.45;7.05;;;;;;;;;;5012056;28;20049;-70
2023/05/19 14:21:14;;;;;;;12.35;6.93;;;;;;;;;;5015943;28;20099;-69
2023/05/19 14:23:40;;;;;;;11.98;7.38;;;;;;;;;;5023703;28;20049;-69
2023/05/19 14:26:05;;;;;;;10.02;7.03;;;;;;;;;;5018781;28;20056;-69
2023/05/19 14:28:31;;;;;;;12.93;7.05;;;;;;;;;;5019271;28;20136;-69
2023/05/19 14:30:57;;;;;;;10.45;6.68;;;;;;;;;;5015030;28;20064;-69
2023/05/19 14:33:22;;;;;;;10.88;7.60;;;;;;;;;;5016712;28;20509;-68
2023/05/19 14:35:47;;;;;;;9.68;6.53;;;;;;;;;;5013630;28;20510;-68
2023/05/19 14:38:13;;;;;;;8.93;7.13;;;;;;;;;;5032660;28;20072;-69